createdAt,value
2019-04-22T00:02:11.239Z,13.65
2019-04-22T00:06:42.704Z,13.56
2019-04-22T00:10:46.770Z,13.58
2019-04-22T00:14:47.994Z,13.27
2019-04-22T00:23:03.655Z,13.39
2019-04-22T00:27:26.134Z,13.26
2019-04-22T00:31:32.719Z,12.95
2019-04-22T00:35:35.474Z,12.99
2019-04-22T00:39:49.839Z,12.91
2019-04-22T00:43:59.598Z,12.80
2019-04-22T00:48:00.875Z,12.61
2019-04-22T00:52:09.356Z,12.57
2019-04-22T01:00:25.039Z,12.84
2019-04-22T01:04:34.538Z,12.74
2019-04-22T01:08:43.532Z,12.46
2019-04-22T01:12:45.691Z,12.64
2019-04-22T01:16:50.502Z,12.28
2019-04-22T01:21:17.790Z,11.91
2019-04-22T01:25:02.453Z,12.00
2019-04-22T01:29:05.021Z,11.92
2019-04-22T01:33:05.881Z,12.36
2019-04-22T01:37:26.947Z,11.91
2019-04-22T01:41:48.608Z,12.29
2019-04-22T01:45:50.670Z,11.78
2019-04-22T01:49:55.689Z,11.25
2019-04-22T01:54:05.499Z,11.32
2019-04-22T01:58:04.546Z,11.04
2019-04-22T02:02:16.268Z,11.18
2019-04-22T02:06:25.443Z,10.97
2019-04-22T02:10:34.805Z,11.01
2019-04-22T02:14:41.047Z,11.05
2019-04-22T02:18:44.936Z,11.27
2019-04-22T02:23:30.590Z,11.36
2019-04-22T02:27:27.462Z,10.85
2019-04-22T02:35:58.115Z,10.71
2019-04-22T02:39:43.046Z,10.58
2019-04-22T02:43:59.807Z,10.87
2019-04-22T02:48:06.694Z,11.14
2019-04-22T02:52:07.627Z,10.77
2019-04-22T02:56:23.114Z,10.85
2019-04-22T03:00:27.247Z,10.86
2019-04-22T03:12:33.265Z,10.69
2019-04-22T03:16:48.813Z,11.05
2019-04-22T03:21:00.330Z,10.78
2019-04-22T03:25:32.359Z,10.78
2019-04-22T03:29:04.760Z,10.51
2019-04-22T03:33:23.465Z,10.40
2019-04-22T03:37:32.355Z,10.49
2019-04-22T03:42:01.964Z,10.09
2019-04-22T03:50:04.146Z,10.20
2019-04-22T03:54:03.413Z,10.16
2019-04-22T04:02:13.994Z,9.93
2019-04-22T04:06:18.011Z,9.92
2019-04-22T04:10:27.830Z,9.81
2019-04-22T04:14:38.056Z,9.82
2019-04-22T04:18:39.597Z,10.28
2019-04-22T04:22:55.999Z,10.34
2019-04-22T04:31:17.470Z,10.22
2019-04-22T04:35:12.807Z,10.19
2019-04-22T04:39:05.533Z,10.21
2019-04-22T04:47:38.913Z,10.94
2019-04-22T04:55:38.776Z,11.02
2019-04-22T05:07:56.062Z,11.23
2019-04-22T05:12:29.164Z,11.59
2019-04-22T05:20:27.328Z,11.74
2019-04-22T05:28:24.459Z,11.94
2019-04-22T05:36:43.652Z,12.26
2019-04-22T05:40:44.119Z,12.47
2019-04-22T05:44:54.937Z,12.54
2019-04-22T05:49:04.392Z,12.72
2019-04-22T05:53:00.505Z,12.87
2019-04-22T05:57:14.379Z,13.05
2019-04-22T06:05:31.946Z,13.28
2019-04-22T06:09:32.667Z,13.36
2019-04-22T06:13:34.472Z,13.39
2019-04-22T06:17:57.420Z,13.41
2019-04-22T06:21:57.914Z,13.51
2019-04-22T06:26:12.625Z,13.66
2019-04-22T06:30:19.115Z,13.69
2019-04-22T06:34:26.556Z,13.79
2019-04-22T06:42:36.555Z,13.83
2019-04-22T06:46:41.853Z,13.88
2019-04-22T06:54:54.922Z,14.21
2019-04-22T06:58:59.077Z,14.37
2019-04-22T07:07:12.677Z,15.00
2019-04-22T07:11:12.523Z,15.21
2019-04-22T07:15:43.564Z,15.34
2019-04-22T07:19:36.099Z,15.58
2019-04-22T07:23:45.729Z,15.80
2019-04-22T07:27:50.611Z,15.90
2019-04-22T07:31:56.242Z,16.03
2019-04-22T07:36:25.748Z,16.25
2019-04-22T07:40:02.596Z,16.41
2019-04-22T07:44:16.670Z,16.71
2019-04-22T07:48:33.407Z,16.81
2019-04-22T07:52:31.912Z,17.25
2019-04-22T07:56:36.810Z,17.32
2019-04-22T08:00:41.084Z,17.48
2019-04-22T08:04:59.022Z,17.50
2019-04-22T08:09:00.272Z,17.57
2019-04-22T08:13:04.921Z,17.97
2019-04-22T08:17:36.523Z,17.87
2019-04-22T08:21:18.476Z,18.42
2019-04-22T08:25:24.830Z,18.42
2019-04-22T08:29:37.257Z,18.41
2019-04-22T08:33:44.556Z,18.52
2019-04-22T08:37:57.582Z,18.80
2019-04-22T08:41:43.421Z,19.06
2019-04-22T08:46:02.607Z,19.28
2019-04-22T08:50:07.805Z,19.72
2019-04-22T08:54:13.591Z,19.65
2019-04-22T09:06:49.341Z,20.38
2019-04-22T09:10:43.326Z,20.84
2019-04-22T09:14:45.867Z,21.12
2019-04-22T09:27:11.231Z,21.11
2019-04-22T09:31:29.232Z,21.12
2019-04-22T09:35:30.331Z,21.92
2019-04-22T09:39:34.669Z,21.91
2019-04-22T09:43:49.085Z,22.83
2019-04-22T09:51:55.430Z,22.22
2019-04-22T09:56:03.680Z,22.43
2019-04-22T10:00:10.928Z,22.43
2019-04-22T10:04:14.343Z,22.44
2019-04-22T10:08:24.159Z,22.77
2019-04-22T10:12:32.141Z,23.06
2019-04-22T10:16:37.083Z,23.71
2019-04-22T10:20:48.525Z,23.23
2019-04-22T10:24:52.003Z,23.07
2019-04-22T10:33:05.714Z,24.04
2019-04-22T10:36:54.327Z,23.30
2019-04-22T10:40:56.542Z,23.37
2019-04-22T10:45:01.908Z,24.42
2019-04-22T10:49:08.272Z,24.75
2019-04-22T10:53:15.481Z,24.21
2019-04-22T10:57:22.034Z,24.54
2019-04-22T11:01:27.600Z,24.55
2019-04-22T11:05:34.304Z,24.53
2019-04-22T11:09:50.773Z,24.49
2019-04-22T11:13:47.602Z,24.27
2019-04-22T11:17:53.535Z,24.85
2019-04-22T11:22:07.715Z,24.73
2019-04-22T11:26:08.161Z,24.37
2019-04-22T11:30:18.504Z,24.37
2019-04-22T11:34:22.215Z,24.88
2019-04-22T11:38:28.720Z,24.94
2019-04-22T11:42:34.334Z,25.95
2019-04-22T11:46:39.531Z,25.97
2019-04-22T11:50:46.172Z,24.98
2019-04-22T11:54:52.732Z,25.58
2019-04-22T11:59:00.470Z,25.24
2019-04-22T12:03:07.341Z,25.68
2019-04-22T12:07:12.877Z,25.24
2019-04-22T12:11:18.708Z,25.36
2019-04-22T12:15:24.651Z,25.71
2019-04-22T12:19:31.203Z,25.94
2019-04-22T12:23:37.065Z,25.72
2019-04-22T12:27:43.162Z,25.78
2019-04-22T12:31:49.431Z,25.31
2019-04-22T12:35:54.789Z,25.58
2019-04-22T12:40:00.398Z,24.69
2019-04-22T12:44:07.323Z,25.29
2019-04-22T12:48:14.855Z,25.29
2019-04-22T12:52:30.543Z,25.42
2019-04-22T12:56:27.847Z,25.84
2019-04-22T13:00:34.321Z,25.61
2019-04-22T13:04:40.558Z,25.92
2019-04-22T13:08:45.802Z,25.38
2019-04-22T13:12:50.991Z,26.21
2019-04-22T13:16:57.608Z,25.62
2019-04-22T13:21:04.211Z,26.25
2019-04-22T13:25:10.486Z,26.25
2019-04-22T13:29:16.920Z,25.91
2019-04-22T13:33:23.172Z,26.94
2019-04-22T13:37:28.639Z,27.19
2019-04-22T13:41:41.769Z,27.04
2019-04-22T13:45:40.901Z,26.31
2019-04-22T13:50:36.065Z,27.17
2019-04-22T13:58:14.603Z,28.44
2019-04-22T14:02:38.124Z,26.97
2019-04-22T14:06:44.852Z,27.92
2019-04-22T14:10:50.314Z,27.51
2019-04-22T14:14:56.375Z,27.51
2019-04-22T14:19:02.087Z,27.89
2019-04-22T14:23:08.360Z,28.01
2019-04-22T14:27:27.747Z,28.08
2019-04-22T14:31:22.800Z,27.65
2019-04-22T14:35:29.136Z,28.17
2019-04-22T14:39:35.785Z,27.42
2019-04-22T14:44:23.508Z,29.09
2019-04-22T14:48:10.920Z,29.05
2019-04-22T14:52:24.753Z,28.11
2019-04-22T14:56:02.270Z,28.42
2019-04-22T15:00:11.576Z,28.34
2019-04-22T15:04:17.284Z,28.96
2019-04-22T15:08:22.742Z,28.37
2019-04-22T15:12:36.763Z,27.08
2019-04-22T15:17:00.790Z,29.46
2019-04-22T15:21:09.087Z,28.54
2019-04-22T15:25:14.516Z,29.18
2019-04-22T15:29:21.039Z,28.64
2019-04-22T15:33:27.635Z,27.85
2019-04-22T15:37:33.185Z,27.42
2019-04-22T15:41:38.755Z,27.43
2019-04-22T15:45:43.942Z,28.33
2019-04-22T15:49:49.952Z,28.97
2019-04-22T15:53:55.810Z,30.68
2019-04-22T15:58:01.820Z,27.96
2019-04-22T16:02:08.286Z,30.10
2019-04-22T16:06:15.663Z,29.11
2019-04-22T16:10:21.992Z,28.30
2019-04-22T16:14:32.838Z,28.53
2019-04-22T16:18:34.124Z,27.79
2019-04-22T16:22:57.110Z,29.20
2019-04-22T16:27:16.490Z,28.88
2019-04-22T16:31:22.615Z,29.18
2019-04-22T16:35:28.728Z,26.93
2019-04-22T16:39:33.921Z,28.11
2019-04-22T16:43:40.639Z,28.02
2019-04-22T16:47:45.924Z,28.26
2019-04-22T16:51:52.033Z,28.49
2019-04-22T16:55:57.293Z,27.59
2019-04-22T17:00:02.919Z,27.47
2019-04-22T17:04:18.925Z,27.22
2019-04-22T17:08:24.627Z,26.99
2019-04-22T17:12:41.844Z,26.90
2019-04-22T17:16:36.806Z,27.00
2019-04-22T17:21:05.443Z,27.69
2019-04-22T17:25:11.972Z,26.85
2019-04-22T17:30:16.666Z,25.68
2019-04-22T17:34:23.345Z,25.76
2019-04-22T17:38:40.778Z,25.96
2019-04-22T17:42:58.937Z,26.44
2019-04-22T17:47:16.777Z,26.34
2019-04-22T17:51:50.343Z,26.21
2019-04-22T17:55:46.208Z,26.21
2019-04-22T17:59:44.767Z,24.84
2019-04-22T18:03:36.388Z,24.34
2019-04-22T18:07:55.905Z,24.31
2019-04-22T18:12:07.358Z,23.76
2019-04-22T18:16:11.863Z,23.38
2019-04-22T18:20:14.426Z,22.39
2019-04-22T18:24:13.039Z,22.39
2019-04-22T18:28:32.754Z,22.25
2019-04-22T18:32:41.065Z,22.07
2019-04-22T18:36:41.653Z,21.80
2019-04-22T18:40:53.356Z,21.68
2019-04-22T18:45:12.766Z,21.60
2019-04-22T18:49:08.066Z,21.36
2019-04-22T18:53:37.138Z,21.12
2019-04-22T18:57:44.081Z,21.02
2019-04-22T19:01:41.912Z,20.69
2019-04-22T19:06:20.428Z,20.69
2019-04-22T19:10:27.548Z,20.56
2019-04-22T19:14:26.423Z,20.53
2019-04-22T19:18:38.012Z,20.62
2019-04-22T19:22:43.852Z,20.39
2019-04-22T19:26:58.634Z,20.21
2019-04-22T19:30:56.336Z,20.10
2019-04-22T19:34:55.650Z,20.20
2019-04-22T19:38:59.198Z,20.04
2019-04-22T19:43:18.765Z,19.98
2019-04-22T19:51:27.826Z,19.96
2019-04-22T19:55:39.365Z,19.97
2019-04-22T19:59:46.538Z,19.85
2019-04-22T20:08:26.333Z,19.55
2019-04-22T20:12:30.880Z,19.43
2019-04-22T20:16:46.934Z,19.31
2019-04-22T20:20:56.072Z,19.12
2019-04-22T20:24:47.498Z,19.00
2019-04-22T20:28:59.003Z,18.89
2019-04-22T20:33:04.680Z,18.68
2019-04-22T20:37:22.300Z,18.51
2019-04-22T20:41:20.189Z,18.32
2019-04-22T20:45:35.118Z,18.21
2019-04-22T20:49:35.549Z,18.11
2019-04-22T20:53:52.315Z,17.99
2019-04-22T20:57:53.621Z,17.99
2019-04-22T21:01:58.917Z,17.81
2019-04-22T21:05:55.894Z,17.66
2019-04-22T21:10:09.163Z,17.64
2019-04-22T21:14:16.132Z,17.44
2019-04-22T21:18:24.773Z,17.36
2019-04-22T21:22:35.453Z,16.99
2019-04-22T21:26:39.978Z,16.95
2019-04-22T21:30:48.104Z,16.86
2019-04-22T21:35:04.154Z,16.69
2019-04-22T21:39:00.845Z,16.65
2019-04-22T21:43:16.226Z,16.55
2019-04-22T21:51:29.097Z,16.46
2019-04-22T21:55:29.773Z,16.55
2019-04-22T21:59:34.566Z,16.49
2019-04-22T22:03:47.761Z,16.33
2019-04-22T22:07:48.086Z,16.26
2019-04-22T22:11:57.493Z,16.20
2019-04-22T22:16:06.715Z,16.15
2019-04-22T22:20:12.750Z,16.06
2019-04-22T22:24:32.868Z,16.07
2019-04-22T22:28:52.142Z,15.90
2019-04-22T22:33:00.126Z,15.90
2019-04-22T22:36:50.205Z,15.72
2019-04-22T22:40:43.943Z,15.69
2019-04-22T22:45:00.632Z,15.46
2019-04-22T22:49:26.453Z,15.41
2019-04-22T22:53:34.003Z,15.32
2019-04-22T22:57:33.825Z,15.24
2019-04-22T23:01:41.115Z,15.20
2019-04-22T23:05:50.619Z,15.11
2019-04-22T23:09:58.607Z,15.09
2019-04-22T23:14:02.493Z,14.88
2019-04-22T23:17:45.811Z,14.77
2019-04-22T23:21:57.500Z,14.67
2019-04-22T23:26:40.405Z,14.61
2019-04-22T23:30:44.594Z,14.50
2019-04-22T23:35:06.759Z,14.42
2019-04-22T23:39:15.738Z,14.42
2019-04-22T23:43:27.607Z,14.30
2019-04-22T23:47:26.023Z,14.21
2019-04-22T23:51:51.665Z,14.21
2019-04-22T23:55:48.231Z,14.21
2019-04-22T23:59:55.386Z,14.11
